Weather at Lambton Airport

Public forecast

Using degrees Celsius for public forecast. Weather courtesy of forecast.io.

Closest aviation weather report (METAR) to Lambton Airport

Closest report is Sherbrooke Airport, 34.3 nm (63.5 km) SW.

2024/07/22 00:00 (retrieved 52 minutes ago)

CYSC 220000Z AUTO 26004KT 9SM FEW250 18/11 A3004 RMK SLP175 DENSITY ALT 1200FT

Closest aviation forecast (TAF) to Lambton Airport

Closest forecast is Trois-Rivières Airport, 72.7 nm (134.7 km) WNW.

2024/07/21 20:00 (retrieved 5 hours ago)

TAF CYRQ 211950Z 2120/2208 29008KT P6SM FEW060 BECMG 2120/2122 25007KT RMK FCST BASED ON AUTO OBS NXT FCST BY 220200Z